createdAt,value
2023-05-10T00:00:02.738Z,37.68
2023-05-10T00:01:02.760Z,35.79
2023-05-10T00:02:02.836Z,37.75
2023-05-10T00:03:02.962Z,36.61
2023-05-10T00:04:03.045Z,35.42
2023-05-10T00:05:02.934Z,36.62
2023-05-10T00:06:02.940Z,35.84
2023-05-10T00:07:02.968Z,34.24
2023-05-10T00:08:02.994Z,35.87
2023-05-10T00:09:03.060Z,37.46
2023-05-10T00:10:03.053Z,35.57
2023-05-10T00:11:03.094Z,35.99
2023-05-10T00:12:03.128Z,37.12
2023-05-10T00:13:03.188Z,36.10
2023-05-10T00:14:03.192Z,37.65
2023-05-10T00:15:03.219Z,37.70
2023-05-10T00:16:03.306Z,35.65
2023-05-10T00:17:03.260Z,35.12
2023-05-10T00:18:03.364Z,33.57
2023-05-10T00:19:03.362Z,36.60
2023-05-10T00:20:03.361Z,37.56
2023-05-10T00:21:03.437Z,33.20
2023-05-10T00:22:03.444Z,35.84
2023-05-10T00:23:03.477Z,36.62
2023-05-10T00:24:03.504Z,36.51
2023-05-10T00:25:03.520Z,36.01
2023-05-10T00:26:03.574Z,33.78
2023-05-10T00:27:03.600Z,34.50
2023-05-10T00:28:03.653Z,33.70
2023-05-10T00:29:03.677Z,36.27
2023-05-10T00:30:03.666Z,36.45
2023-05-10T00:31:03.788Z,34.47
2023-05-10T00:32:03.824Z,33.25
2023-05-10T00:33:03.895Z,33.49
2023-05-10T00:34:03.843Z,32.55
2023-05-10T00:35:03.840Z,33.87
2023-05-10T00:36:03.909Z,32.36
2023-05-10T00:37:03.959Z,35.17
2023-05-10T00:38:03.970Z,35.05
2023-05-10T00:39:03.985Z,35.66
2023-05-10T00:40:04.001Z,34.76
2023-05-10T00:41:04.053Z,33.39
2023-05-10T00:42:04.065Z,36.67
2023-05-10T00:43:04.110Z,32.78
2023-05-10T00:44:04.167Z,34.05
2023-05-10T00:45:04.200Z,33.84
2023-05-10T00:46:04.272Z,34.84
2023-05-10T00:47:04.285Z,34.15
2023-05-10T00:48:04.355Z,35.65
2023-05-10T00:49:04.311Z,35.25
2023-05-10T00:50:04.464Z,36.30
2023-05-10T00:51:04.385Z,36.11
2023-05-10T00:52:04.436Z,36.40
2023-05-10T00:53:04.422Z,36.79
2023-05-10T00:54:04.466Z,32.45
2023-05-10T00:55:04.503Z,35.80
2023-05-10T00:56:05.525Z,35.66
2023-05-10T00:57:04.685Z,36.32
2023-05-10T00:58:04.630Z,36.54
2023-05-10T00:59:04.667Z,37.09
2023-05-10T01:00:04.700Z,36.08
2023-05-10T01:01:04.722Z,32.68
2023-05-10T01:02:04.794Z,31.76
2023-05-10T01:03:04.905Z,32.99
2023-05-10T01:04:04.809Z,35.92
2023-05-10T01:05:04.965Z,33.03
2023-05-10T01:06:04.908Z,36.37
2023-05-10T01:07:04.948Z,36.01
2023-05-10T01:08:04.986Z,32.72
2023-05-10T01:09:05.007Z,31.31
2023-05-10T01:10:05.046Z,34.74
2023-05-10T01:11:05.068Z,36.51
2023-05-10T01:12:05.148Z,32.91
2023-05-10T01:13:05.202Z,33.88
2023-05-10T01:14:05.245Z,33.55
2023-05-10T01:15:05.234Z,34.65
2023-05-10T01:16:05.334Z,32.55
2023-05-10T01:17:05.376Z,32.68
2023-05-10T01:18:05.414Z,32.36
2023-05-10T01:28:19.958Z,25.00
2023-05-10T01:29:18.227Z,25.00
2023-05-10T01:30:18.217Z,25.00
2023-05-10T01:31:18.242Z,25.00
2023-05-10T01:32:18.200Z,25.00
2023-05-10T01:33:18.206Z,25.36
2023-05-10T01:34:18.483Z,24.53
2023-05-10T01:35:18.184Z,25.00
2023-05-10T01:36:18.161Z,26.32
2023-05-10T01:37:18.174Z,25.34
2023-05-10T01:38:18.188Z,25.08
2023-05-10T01:39:18.162Z,25.00
2023-05-10T01:40:18.212Z,25.15
2023-05-10T01:41:18.144Z,27.07
2023-05-10T01:42:18.137Z,26.08
2023-05-10T01:43:18.156Z,27.63
2023-05-10T01:44:18.221Z,25.29
2023-05-10T01:45:18.270Z,28.27
2023-05-10T01:46:18.293Z,25.00
2023-05-10T01:47:18.306Z,26.84
2023-05-10T01:48:18.345Z,27.88
2023-05-10T01:49:18.415Z,26.31
2023-05-10T01:50:18.641Z,26.09
2023-05-10T01:51:18.456Z,25.58
2023-05-10T01:52:18.479Z,27.59
2023-05-10T01:53:18.517Z,29.42
2023-05-10T01:54:18.555Z,25.51
2023-05-10T01:55:18.639Z,28.51
2023-05-10T01:56:18.634Z,28.24
2023-05-10T01:57:18.666Z,27.75
2023-05-10T01:58:18.731Z,27.95
2023-05-10T01:59:18.797Z,25.71
2023-05-10T02:00:19.025Z,27.85
2023-05-10T02:01:18.878Z,27.57
2023-05-10T02:02:18.910Z,28.79
2023-05-10T02:03:18.929Z,26.05
2023-05-10T02:04:18.971Z,28.75
2023-05-10T02:05:19.026Z,27.54
2023-05-10T02:06:19.088Z,25.81
2023-05-10T02:07:19.089Z,25.80
2023-05-10T02:08:19.163Z,27.09
2023-05-10T02:09:19.430Z,28.27
2023-05-10T02:10:19.259Z,26.29
2023-05-10T02:11:19.233Z,27.99
2023-05-10T02:12:19.290Z,27.98
2023-05-10T02:13:19.384Z,29.41
2023-05-10T02:14:19.365Z,30.32
2023-05-10T02:15:19.446Z,29.31
2023-05-10T02:16:19.527Z,29.86
2023-05-10T02:17:19.482Z,28.86
2023-05-10T02:18:19.554Z,29.99
2023-05-10T02:19:19.610Z,27.54
2023-05-10T02:20:19.771Z,26.84
2023-05-10T02:21:19.702Z,26.71
2023-05-10T02:22:19.722Z,28.25
2023-05-10T02:23:19.724Z,30.35
2023-05-10T02:24:19.767Z,29.55
2023-05-10T02:25:19.829Z,28.94
2023-05-10T02:26:19.870Z,27.29
2023-05-10T02:27:19.915Z,27.84
2023-05-10T02:28:19.944Z,28.88
2023-05-10T02:29:20.471Z,28.01
2023-05-10T02:30:20.041Z,29.61
2023-05-10T02:31:20.168Z,26.71
2023-05-10T02:32:20.220Z,26.97
2023-05-10T02:33:20.200Z,29.19
2023-05-10T02:34:20.240Z,27.87
2023-05-10T02:35:20.284Z,26.94
2023-05-10T02:36:20.303Z,26.31
2023-05-10T02:37:20.357Z,26.74
2023-05-10T02:38:20.400Z,28.04
2023-05-10T02:39:20.461Z,30.03
2023-05-10T02:40:20.480Z,30.01
2023-05-10T02:41:20.532Z,31.21
2023-05-10T02:42:20.562Z,27.11
2023-05-10T02:43:20.578Z,28.00
2023-05-10T02:44:20.634Z,27.09
2023-05-10T02:45:20.673Z,29.40
2023-05-10T02:46:20.795Z,30.27
2023-05-10T02:47:20.771Z,29.36
2023-05-10T02:48:20.794Z,28.10
2023-05-10T02:49:20.859Z,31.12
2023-05-10T02:50:20.861Z,30.53
2023-05-10T02:51:20.922Z,29.12
2023-05-10T02:52:20.959Z,28.62
2023-05-10T02:53:21.113Z,31.36
2023-05-10T02:54:21.087Z,30.56
2023-05-10T02:55:21.104Z,34.90
2023-05-10T02:56:21.143Z,27.01
2023-05-10T02:57:21.211Z,29.13
2023-05-10T02:58:21.229Z,28.48
2023-05-10T02:59:21.291Z,27.72
2023-05-10T03:00:21.357Z,27.43
2023-05-10T03:01:21.429Z,26.71
2023-05-10T03:02:21.427Z,28.16
2023-05-10T03:03:21.464Z,27.79
2023-05-10T03:04:21.552Z,28.23
2023-05-10T03:05:21.539Z,30.15
2023-05-10T03:06:21.580Z,29.22
2023-05-10T03:07:21.634Z,27.65
2023-05-10T03:08:21.661Z,32.05
2023-05-10T03:09:21.704Z,31.07
2023-05-10T03:10:21.735Z,30.41
2023-05-10T03:11:21.772Z,30.03
2023-05-10T03:12:21.814Z,29.86
2023-05-10T03:13:21.967Z,26.88
2023-05-10T03:14:21.943Z,27.07
2023-05-10T03:15:21.986Z,28.67
2023-05-10T03:16:21.998Z,26.68
2023-05-10T03:17:22.027Z,28.19
2023-05-10T03:18:22.087Z,27.72
2023-05-10T03:19:22.171Z,28.58
2023-05-10T03:20:22.144Z,28.39
2023-05-10T03:21:22.244Z,28.84
2023-05-10T03:22:22.285Z,28.97
2023-05-10T03:23:22.280Z,30.11
2023-05-10T03:24:22.347Z,30.46
2023-05-10T03:25:22.366Z,29.37
2023-05-10T03:26:22.388Z,27.62
2023-05-10T03:27:22.434Z,28.62
2023-05-10T03:28:22.502Z,26.46
2023-05-10T03:29:22.581Z,28.88
2023-05-10T03:30:22.592Z,29.67
2023-05-10T03:31:22.711Z,27.28
2023-05-10T03:32:22.705Z,27.24
2023-05-10T03:33:22.707Z,27.92
2023-05-10T03:34:22.778Z,28.17
2023-05-10T03:35:22.802Z,30.03
2023-05-10T03:36:22.804Z,31.07
2023-05-10T03:37:22.885Z,27.94
2023-05-10T03:38:22.903Z,26.75
2023-05-10T03:39:22.961Z,29.40
2023-05-10T03:40:22.987Z,28.43
2023-05-10T03:41:23.069Z,25.75
2023-05-10T03:42:23.120Z,30.77
2023-05-10T03:43:23.141Z,30.40
2023-05-10T03:44:23.207Z,28.98
2023-05-10T03:45:23.249Z,30.46
2023-05-10T03:46:23.342Z,28.07
2023-05-10T03:47:23.404Z,25.25
2023-05-10T03:48:23.384Z,30.99
2023-05-10T03:49:23.450Z,28.34
2023-05-10T03:50:23.440Z,28.81
2023-05-10T03:51:23.490Z,28.44
2023-05-10T03:52:23.552Z,27.28
2023-05-10T03:53:23.587Z,28.90
2023-05-10T03:54:23.656Z,27.95
2023-05-10T03:55:23.666Z,27.75
2023-05-10T03:56:23.719Z,26.77
2023-05-10T03:57:23.763Z,27.30
2023-05-10T03:58:23.845Z,27.37
2023-05-10T03:59:23.960Z,30.51
2023-05-10T04:00:23.928Z,30.18
2023-05-10T04:01:24.017Z,28.17
2023-05-10T04:02:24.180Z,28.63
2023-05-10T04:03:24.135Z,26.57
2023-05-10T04:04:24.128Z,28.98
2023-05-10T04:05:24.153Z,28.05
2023-05-10T04:06:24.225Z,28.49
2023-05-10T04:07:24.270Z,28.58
2023-05-10T04:08:24.290Z,30.09
2023-05-10T04:09:24.504Z,31.08
2023-05-10T04:10:24.422Z,30.64
2023-05-10T04:11:24.447Z,27.93
2023-05-10T04:12:24.491Z,29.22
2023-05-10T04:13:24.597Z,26.88
2023-05-10T04:14:24.589Z,27.99
2023-05-10T04:15:24.616Z,30.66
2023-05-10T04:16:24.709Z,30.30
2023-05-10T04:17:24.789Z,27.17
2023-05-10T04:18:24.794Z,27.77
2023-05-10T04:19:24.831Z,28.38
2023-05-10T04:20:24.857Z,28.11
2023-05-10T04:21:24.920Z,26.64
2023-05-10T04:22:24.981Z,31.30
2023-05-10T04:23:25.009Z,28.89
2023-05-10T04:24:25.134Z,30.06
2023-05-10T04:25:25.088Z,29.78
2023-05-10T04:26:25.138Z,30.02
2023-05-10T04:27:25.182Z,28.88
2023-05-10T04:28:25.235Z,25.14
2023-05-10T04:29:25.352Z,30.69
2023-05-10T04:30:25.349Z,27.32
2023-05-10T04:31:25.419Z,27.74
2023-05-10T04:32:25.460Z,30.68
2023-05-10T04:33:25.476Z,28.58
2023-05-10T04:34:25.514Z,28.26
2023-05-10T04:35:25.567Z,31.65
2023-05-10T04:36:25.614Z,30.29
2023-05-10T04:37:25.667Z,29.66
2023-05-10T04:38:25.698Z,25.00
2023-05-10T04:39:25.772Z,30.52
2023-05-10T04:40:26.157Z,29.46
2023-05-10T04:41:25.832Z,33.56
2023-05-10T04:42:25.862Z,29.16
2023-05-10T04:43:26.092Z,33.36
2023-05-10T04:44:25.985Z,29.07
2023-05-10T04:45:26.008Z,28.76
2023-05-10T04:46:26.129Z,33.31
2023-05-10T04:47:26.114Z,28.81
2023-05-10T04:48:26.179Z,34.72
2023-05-10T04:49:26.191Z,29.36
2023-05-10T04:50:26.279Z,32.19
2023-05-10T04:51:26.293Z,31.49
2023-05-10T04:52:26.315Z,27.01
2023-05-10T04:53:26.394Z,29.03
2023-05-10T04:54:26.433Z,30.64
2023-05-10T04:55:26.478Z,29.36
2023-05-10T04:56:26.501Z,31.17
2023-05-10T04:57:26.623Z,29.32
2023-05-10T04:58:26.618Z,29.77
2023-05-10T04:59:26.655Z,27.06
2023-05-10T05:00:26.724Z,32.95
2023-05-10T05:01:26.857Z,27.28
2023-05-10T05:02:26.864Z,28.41
2023-05-10T05:03:26.928Z,28.11
2023-05-10T05:04:26.903Z,29.39
2023-05-10T05:05:26.924Z,27.82
2023-05-10T05:06:26.977Z,30.47
2023-05-10T05:07:27.028Z,28.79
2023-05-10T05:08:27.101Z,31.26
2023-05-10T05:09:27.174Z,29.37
2023-05-10T05:10:27.171Z,28.50
2023-05-10T05:11:27.240Z,28.78
2023-05-10T05:12:27.276Z,29.81
2023-05-10T05:13:27.444Z,28.29
2023-05-10T05:14:27.395Z,27.43
2023-05-10T05:15:27.384Z,28.47
2023-05-10T05:16:27.503Z,29.74
2023-05-10T05:17:27.522Z,26.93
2023-05-10T05:18:27.504Z,28.44
2023-05-10T05:19:27.556Z,28.78
2023-05-10T05:20:27.627Z,26.17
2023-05-10T05:21:27.675Z,27.90
2023-05-10T05:22:27.697Z,27.84
2023-05-10T05:23:27.740Z,27.74
2023-05-10T05:24:27.795Z,28.39
2023-05-10T05:25:27.837Z,29.87
2023-05-10T05:26:27.851Z,31.96
2023-05-10T05:27:27.914Z,30.65
2023-05-10T05:28:27.939Z,27.84
2023-05-10T05:29:28.079Z,27.87
2023-05-10T05:30:28.044Z,27.14
2023-05-10T05:31:28.215Z,26.12
2023-05-10T05:32:28.142Z,27.30
2023-05-10T05:33:28.161Z,29.12
2023-05-10T05:34:28.250Z,31.22
2023-05-10T05:35:28.320Z,33.61
2023-05-10T05:36:28.329Z,33.26
2023-05-10T05:37:28.353Z,39.79
2023-05-10T05:38:28.460Z,60.05
2023-05-10T05:39:28.499Z,67.61
2023-05-10T05:40:28.479Z,77.97
2023-05-10T05:41:28.524Z,81.55
2023-05-10T05:42:28.553Z,96.22
2023-05-10T05:43:28.681Z,93.26
2023-05-10T05:44:28.654Z,100.57
2023-05-10T05:45:28.666Z,99.02
2023-05-10T05:46:28.734Z,102.42
2023-05-10T05:47:28.752Z,105.31
2023-05-10T05:48:28.789Z,105.66
2023-05-10T05:49:28.796Z,112.86
2023-05-10T05:50:28.901Z,126.09
2023-05-10T05:51:28.927Z,129.05
2023-05-10T05:52:28.900Z,138.74
2023-05-10T05:53:28.963Z,140.29
2023-05-10T05:54:28.978Z,142.05
2023-05-10T05:55:29.051Z,146.82
2023-05-10T05:56:29.041Z,148.52
2023-05-10T05:57:29.148Z,151.85
2023-05-10T05:58:29.236Z,152.81
2023-05-10T05:59:29.243Z,151.65
2023-05-10T06:00:29.333Z,154.77
2023-05-10T06:01:29.289Z,158.58
2023-05-10T06:02:29.324Z,158.58
2023-05-10T06:03:29.503Z,155.47
2023-05-10T06:04:29.692Z,162.26
2023-05-10T06:05:29.546Z,160.57
2023-05-10T06:06:29.567Z,158.71
2023-05-10T06:07:29.577Z,165.30
2023-05-10T06:08:29.678Z,162.64
2023-05-10T06:09:29.720Z,163.87
2023-05-10T06:10:29.769Z,162.11
2023-05-10T06:11:29.828Z,163.89
2023-05-10T06:12:29.828Z,161.99
2023-05-10T06:13:29.990Z,162.83
2023-05-10T06:14:29.952Z,160.46
2023-05-10T06:15:30.000Z,164.86
2023-05-10T06:16:30.071Z,163.60
2023-05-10T06:17:30.140Z,162.59
2023-05-10T06:18:30.133Z,164.53
2023-05-10T06:19:30.171Z,162.25
2023-05-10T06:20:30.258Z,164.55
2023-05-10T06:21:30.279Z,163.99
2023-05-10T06:22:30.456Z,161.70
2023-05-10T06:23:30.395Z,164.09
2023-05-10T06:24:30.451Z,161.87
2023-05-10T06:25:30.478Z,165.32
2023-05-10T06:26:30.539Z,161.09
2023-05-10T06:27:30.585Z,160.15
2023-05-10T06:28:30.644Z,161.96
2023-05-10T06:29:30.728Z,156.67
2023-05-10T06:30:30.829Z,158.01
2023-05-10T06:31:31.527Z,154.88
2023-05-10T06:32:30.960Z,158.57
2023-05-10T06:33:30.976Z,159.45
2023-05-10T06:34:31.001Z,160.04
2023-05-10T06:35:31.045Z,158.33
2023-05-10T06:36:31.148Z,157.80
2023-05-10T06:37:31.162Z,152.93
2023-05-10T06:38:31.252Z,150.66
2023-05-10T06:39:31.532Z,150.57
2023-05-10T06:40:31.351Z,152.10
2023-05-10T06:41:31.397Z,156.91
2023-05-10T06:42:31.614Z,148.87
2023-05-10T06:43:31.522Z,149.00
2023-05-10T06:44:31.566Z,147.91
2023-05-10T06:45:31.502Z,148.31
2023-05-10T06:46:31.518Z,143.98
2023-05-10T06:47:31.634Z,148.22
2023-05-10T06:48:31.544Z,149.21
2023-05-10T06:49:31.517Z,144.85
2023-05-10T06:50:31.573Z,148.79
2023-05-10T06:51:31.506Z,152.14
2023-05-10T06:52:31.545Z,150.58
2023-05-10T06:53:31.609Z,154.25
2023-05-10T06:54:31.592Z,155.00
2023-05-10T06:55:31.600Z,159.17
2023-05-10T06:56:31.670Z,160.40
2023-05-10T06:57:32.357Z,152.47
2023-05-10T06:58:31.873Z,160.96
2023-05-10T06:59:31.949Z,169.32
2023-05-10T07:00:32.067Z,174.92
2023-05-10T07:01:31.919Z,170.47
2023-05-10T07:02:31.995Z,168.50
2023-05-10T07:03:32.061Z,168.88
2023-05-10T07:04:32.093Z,168.91
2023-05-10T07:05:32.141Z,168.11
2023-05-10T07:06:34.011Z,171.64
2023-05-10T07:07:32.251Z,234.34
2023-05-10T07:08:32.290Z,224.58
2023-05-10T07:09:32.363Z,228.85
2023-05-10T07:10:32.426Z,244.68
2023-05-10T07:11:32.467Z,203.06
2023-05-10T07:12:32.611Z,163.41
2023-05-10T07:13:32.637Z,177.54
2023-05-10T07:14:32.725Z,187.48
2023-05-10T07:15:32.713Z,182.58
2023-05-10T07:16:32.789Z,185.64
2023-05-10T07:17:32.896Z,191.39
2023-05-10T07:18:33.064Z,200.62
2023-05-10T07:19:32.964Z,193.89
2023-05-10T07:20:32.999Z,178.78
2023-05-10T07:21:33.195Z,177.01
2023-05-10T07:22:33.109Z,176.81
2023-05-10T07:23:33.163Z,181.74
2023-05-10T07:24:33.254Z,179.46
2023-05-10T07:25:33.271Z,173.73
2023-05-10T07:26:33.382Z,175.32
2023-05-10T07:27:33.355Z,172.83
2023-05-10T07:28:33.448Z,165.51
2023-05-10T07:29:33.456Z,171.11
2023-05-10T07:30:33.485Z,169.81
2023-05-10T07:31:33.532Z,171.31
2023-05-10T07:32:33.685Z,167.69
2023-05-10T07:33:33.595Z,167.85
2023-05-10T07:34:34.101Z,167.49
2023-05-10T07:35:33.606Z,150.82
2023-05-10T07:36:33.691Z,132.59
2023-05-10T07:37:33.727Z,123.76
2023-05-10T07:38:33.761Z,116.88
2023-05-10T07:39:33.765Z,126.66
2023-05-10T07:40:33.853Z,126.28
2023-05-10T07:41:35.080Z,133.02
2023-05-10T07:42:33.869Z,134.21
2023-05-10T07:43:33.920Z,139.53
2023-05-10T07:44:33.972Z,143.65
2023-05-10T07:45:34.209Z,144.15
2023-05-10T07:46:33.998Z,147.87
2023-05-10T07:47:34.144Z,152.89
2023-05-10T07:48:34.304Z,155.07
2023-05-10T07:49:34.055Z,158.41
2023-05-10T07:50:34.240Z,158.56
2023-05-10T07:51:35.049Z,160.58
2023-05-10T07:52:34.138Z,162.75
2023-05-10T07:53:34.190Z,167.37
2023-05-10T07:54:34.572Z,171.98
2023-05-10T07:55:34.170Z,177.53
2023-05-10T07:56:34.151Z,182.27
2023-05-10T07:57:34.145Z,186.05
2023-05-10T07:58:34.140Z,193.91
2023-05-10T07:59:34.239Z,199.47
2023-05-10T08:00:34.139Z,198.04
2023-05-10T08:01:34.134Z,205.51
2023-05-10T08:02:34.299Z,204.75
2023-05-10T08:03:34.235Z,207.95
2023-05-10T08:04:34.178Z,212.44
2023-05-10T08:05:35.784Z,230.25
2023-05-10T08:06:34.149Z,246.08
2023-05-10T08:07:34.123Z,223.48
2023-05-10T08:08:34.152Z,171.06
2023-05-10T08:09:34.156Z,167.47
2023-05-10T08:10:34.142Z,170.69
2023-05-10T08:11:35.021Z,178.93
2023-05-10T08:12:34.141Z,185.80
2023-05-10T08:13:34.193Z,188.20
2023-05-10T08:14:34.201Z,193.45
2023-05-10T08:15:34.193Z,198.50
2023-05-10T08:16:34.193Z,198.91
2023-05-10T08:17:34.181Z,202.24
2023-05-10T08:18:34.191Z,203.51
2023-05-10T08:19:34.142Z,208.19
2023-05-10T08:20:34.590Z,205.40
2023-05-10T08:21:34.165Z,208.39
2023-05-10T08:22:34.124Z,206.41
2023-05-10T08:23:34.120Z,205.68
2023-05-10T08:24:34.136Z,208.86
2023-05-10T08:25:34.209Z,214.88
2023-05-10T08:26:34.149Z,216.81
2023-05-10T08:27:34.168Z,223.99
2023-05-10T08:28:34.146Z,223.06
2023-05-10T08:29:46.302Z,224.23
2023-05-10T08:30:35.244Z,224.67
2023-05-10T08:31:34.155Z,223.35
2023-05-10T08:32:34.160Z,216.97
2023-05-10T08:33:34.137Z,225.30
2023-05-10T08:34:34.104Z,219.82
2023-05-10T08:35:34.189Z,226.08
2023-05-10T08:36:34.117Z,230.86
2023-05-10T08:37:34.100Z,220.11
2023-05-10T08:38:34.093Z,217.39
2023-05-10T08:39:34.112Z,217.89
2023-05-10T08:40:34.071Z,213.67
2023-05-10T08:41:34.060Z,196.98
2023-05-10T08:42:34.113Z,179.52
2023-05-10T08:43:34.088Z,198.57
2023-05-10T08:44:34.067Z,216.15
2023-05-10T08:45:34.136Z,245.68
2023-05-10T08:46:34.104Z,241.77
2023-05-10T08:47:34.066Z,238.46
2023-05-10T08:48:34.026Z,248.77
2023-05-10T08:49:34.123Z,250.71
2023-05-10T08:50:34.083Z,255.64
2023-05-10T08:51:33.997Z,245.12
2023-05-10T08:52:33.992Z,257.81
2023-05-10T08:53:34.641Z,245.19
2023-05-10T08:54:34.010Z,244.18
2023-05-10T08:55:33.992Z,241.72
2023-05-10T08:56:33.967Z,240.56
2023-05-10T08:57:33.991Z,245.12
2023-05-10T08:58:33.955Z,250.67
2023-05-10T08:59:33.991Z,247.17
2023-05-10T09:00:33.994Z,248.29
2023-05-10T09:01:33.940Z,249.45
2023-05-10T09:02:33.940Z,250.00
2023-05-10T09:03:33.974Z,250.17
2023-05-10T09:04:34.079Z,249.35
2023-05-10T09:05:34.056Z,247.35
2023-05-10T09:06:34.117Z,247.55
2023-05-10T09:07:35.269Z,244.25
2023-05-10T09:08:34.211Z,278.34
2023-05-10T09:09:34.281Z,330.46
2023-05-10T09:10:34.336Z,288.83
2023-05-10T09:11:34.408Z,241.07
2023-05-10T09:12:34.486Z,228.09
2023-05-10T09:13:34.501Z,225.41
2023-05-10T09:14:34.570Z,227.04
2023-05-10T09:15:34.711Z,237.47
2023-05-10T09:16:34.727Z,257.56
2023-05-10T09:17:34.794Z,234.84
2023-05-10T09:18:34.850Z,228.99
2023-05-10T09:19:34.864Z,224.52
2023-05-10T09:20:34.952Z,221.02
2023-05-10T09:21:35.016Z,222.49
2023-05-10T09:22:35.071Z,223.31
2023-05-10T09:23:35.104Z,231.18
2023-05-10T09:24:35.114Z,250.25
2023-05-10T09:25:35.145Z,237.96
2023-05-10T09:26:35.201Z,230.69
2023-05-10T09:27:35.239Z,225.69
2023-05-10T09:28:35.274Z,226.47
2023-05-10T09:29:35.330Z,221.47
2023-05-10T09:30:35.456Z,219.98
2023-05-10T09:31:35.405Z,220.16
2023-05-10T09:32:35.480Z,215.87
2023-05-10T09:33:35.513Z,206.47
2023-05-10T09:34:37.123Z,159.24
2023-05-10T09:35:35.627Z,111.24
2023-05-10T09:36:35.632Z,118.12
2023-05-10T09:37:35.670Z,122.14
2023-05-10T09:38:35.731Z,122.48
2023-05-10T09:39:35.798Z,117.18
2023-05-10T09:40:35.836Z,109.30
2023-05-10T09:41:35.844Z,106.07
2023-05-10T09:42:35.919Z,100.46
2023-05-10T09:43:35.937Z,95.20
2023-05-10T09:44:35.994Z,89.54
2023-05-10T09:45:38.275Z,92.90
2023-05-10T09:46:36.115Z,96.92
2023-05-10T09:47:36.125Z,88.27
2023-05-10T09:48:36.033Z,100.25
2023-05-10T09:49:36.019Z,100.90
2023-05-10T09:50:36.169Z,100.21
2023-05-10T09:51:36.942Z,100.73
2023-05-10T09:52:35.978Z,101.51
2023-05-10T09:53:35.967Z,89.69
2023-05-10T09:54:35.994Z,84.59
2023-05-10T09:55:35.998Z,79.83
2023-05-10T09:56:35.960Z,78.12
2023-05-10T09:57:35.939Z,71.80
2023-05-10T09:58:35.948Z,65.06
2023-05-10T09:59:35.985Z,59.92
2023-05-10T10:00:35.930Z,50.94
2023-05-10T10:01:36.108Z,48.42
2023-05-10T10:02:35.978Z,50.03
2023-05-10T10:03:35.915Z,45.29
2023-05-10T10:04:35.911Z,44.18
2023-05-10T10:05:35.891Z,46.62
2023-05-10T10:06:35.888Z,48.93
2023-05-10T10:07:35.913Z,49.24
2023-05-10T10:08:35.884Z,48.57
2023-05-10T10:09:35.907Z,45.37
2023-05-10T10:10:36.126Z,44.74
2023-05-10T10:11:35.858Z,44.12
2023-05-10T10:12:35.836Z,46.96
2023-05-10T10:13:35.842Z,49.59
2023-05-10T10:14:35.827Z,54.97
2023-05-10T10:15:35.932Z,50.13
2023-05-10T10:16:35.853Z,49.55
2023-05-10T10:17:35.876Z,46.01
2023-05-10T10:18:35.821Z,42.75
2023-05-10T10:19:35.873Z,43.98
2023-05-10T10:20:35.803Z,38.96
2023-05-10T10:21:35.879Z,33.96
2023-05-10T10:22:35.910Z,31.71
2023-05-10T10:23:35.983Z,30.92
2023-05-10T10:24:36.000Z,34.53
2023-05-10T10:25:36.057Z,35.69
2023-05-10T10:26:36.160Z,42.22
2023-05-10T10:27:36.141Z,45.08
2023-05-10T10:28:36.203Z,43.40
2023-05-10T10:29:36.254Z,39.55
2023-05-10T10:30:36.310Z,37.90
2023-05-10T10:31:36.388Z,41.45
2023-05-10T10:32:36.429Z,39.36
2023-05-10T10:33:36.429Z,34.53
2023-05-10T10:34:36.533Z,28.34
2023-05-10T10:35:36.543Z,25.32
2023-05-10T10:36:36.550Z,28.63
2023-05-10T10:37:36.621Z,26.05
2023-05-10T10:38:36.662Z,25.62
2023-05-10T10:39:36.732Z,30.09
2023-05-10T10:40:36.869Z,37.01
2023-05-10T10:41:36.860Z,37.96
2023-05-10T10:42:36.894Z,31.47
2023-05-10T10:43:36.955Z,30.01
2023-05-10T10:44:37.058Z,28.36
2023-05-10T10:45:37.083Z,28.55
2023-05-10T10:46:37.244Z,28.22
2023-05-10T10:47:37.337Z,31.95
2023-05-10T10:48:37.270Z,37.93
2023-05-10T10:49:37.316Z,34.66
2023-05-10T10:50:37.352Z,35.17
2023-05-10T10:51:37.450Z,32.02
2023-05-10T10:52:37.457Z,24.69
2023-05-10T10:53:37.497Z,25.00
2023-05-10T10:54:37.577Z,27.86
2023-05-10T10:55:37.586Z,31.14
2023-05-10T10:56:37.757Z,28.45
2023-05-10T10:57:37.672Z,25.31
2023-05-10T10:58:37.687Z,26.90
2023-05-10T10:59:37.695Z,30.44
2023-05-10T11:00:37.881Z,26.76
2023-05-10T11:01:37.796Z,30.78
2023-05-10T11:02:37.751Z,34.19
2023-05-10T11:03:37.715Z,42.10
2023-05-10T11:04:37.840Z,48.28
2023-05-10T11:05:37.718Z,54.67
2023-05-10T11:06:37.724Z,66.76
2023-05-10T11:07:37.753Z,65.70
2023-05-10T11:08:38.352Z,68.03
2023-05-10T11:09:37.926Z,70.59
2023-05-10T11:10:37.968Z,76.40
2023-05-10T11:11:38.026Z,81.80
2023-05-10T11:12:38.068Z,86.01
2023-05-10T11:13:38.105Z,90.70
2023-05-10T11:14:39.134Z,95.43
2023-05-10T11:15:38.178Z,97.88
2023-05-10T11:16:38.331Z,99.25
2023-05-10T11:17:39.120Z,101.56
2023-05-10T11:18:38.409Z,98.66
2023-05-10T11:19:38.355Z,96.89
2023-05-10T11:20:38.342Z,97.72
2023-05-10T11:21:38.365Z,100.81
2023-05-10T11:22:38.387Z,102.99
2023-05-10T11:23:38.456Z,103.13
2023-05-10T11:24:38.442Z,105.01
2023-05-10T11:25:38.529Z,105.23
2023-05-10T11:26:38.538Z,108.11
2023-05-10T11:27:38.580Z,109.74
2023-05-10T11:28:38.631Z,109.83
2023-05-10T11:29:38.737Z,110.04
2023-05-10T11:30:38.691Z,109.34
2023-05-10T11:31:38.738Z,111.24
2023-05-10T11:32:38.827Z,110.63
2023-05-10T11:33:38.822Z,111.59
2023-05-10T11:34:38.867Z,112.06
2023-05-10T11:35:40.436Z,111.85
2023-05-10T11:36:38.936Z,111.78
2023-05-10T11:37:38.930Z,112.60
2023-05-10T11:38:38.893Z,110.79
2023-05-10T11:39:38.888Z,111.57
2023-05-10T11:40:38.909Z,112.55
2023-05-10T11:41:39.662Z,113.92
2023-05-10T11:42:38.899Z,114.00
2023-05-10T11:43:38.869Z,114.17
2023-05-10T11:44:38.863Z,113.88
2023-05-10T11:45:38.853Z,113.86
2023-05-10T11:46:38.895Z,113.60
2023-05-10T11:47:39.975Z,113.90
2023-05-10T11:48:38.848Z,115.36
2023-05-10T11:49:38.894Z,115.29
2023-05-10T11:50:38.982Z,115.59
2023-05-10T11:51:39.252Z,116.18
2023-05-10T11:52:39.129Z,115.49
2023-05-10T11:53:39.148Z,115.77
2023-05-10T11:54:39.164Z,114.70
2023-05-10T11:55:39.198Z,115.22
2023-05-10T11:56:39.247Z,115.45
2023-05-10T11:57:39.321Z,116.42
2023-05-10T11:58:39.332Z,115.04
2023-05-10T11:59:41.165Z,115.34
2023-05-10T12:00:39.375Z,117.76
2023-05-10T12:01:39.404Z,116.15
2023-05-10T12:02:39.404Z,116.16
2023-05-10T12:03:39.455Z,117.39
2023-05-10T12:04:39.398Z,115.96
2023-05-10T12:05:41.127Z,115.07
2023-05-10T12:06:39.309Z,115.29
2023-05-10T12:07:39.310Z,115.64
2023-05-10T12:08:39.294Z,116.18
2023-05-10T12:09:43.784Z,116.57
2023-05-10T12:10:40.284Z,115.35
2023-05-10T12:11:41.100Z,115.85
2023-05-10T12:12:39.288Z,116.59
2023-05-10T12:13:39.264Z,117.84
2023-05-10T12:14:39.251Z,117.98
2023-05-10T12:15:39.235Z,118.01
2023-05-10T12:16:39.376Z,117.35
2023-05-10T12:17:41.272Z,117.82
2023-05-10T12:18:39.221Z,117.94
2023-05-10T12:19:39.292Z,117.83
2023-05-10T12:20:39.193Z,117.50
2023-05-10T12:21:39.207Z,116.80
2023-05-10T12:22:39.183Z,117.56
2023-05-10T12:23:39.189Z,117.30
2023-05-10T12:24:39.228Z,116.79
2023-05-10T12:25:39.167Z,116.88
2023-05-10T12:26:39.171Z,117.58
2023-05-10T12:27:39.161Z,116.76
2023-05-10T12:28:39.124Z,116.63
2023-05-10T12:29:40.580Z,116.54
2023-05-10T12:30:39.122Z,116.65
2023-05-10T12:31:39.150Z,116.66
2023-05-10T12:32:39.141Z,116.73
2023-05-10T12:33:39.101Z,117.55
2023-05-10T12:34:39.092Z,115.43
2023-05-10T12:35:40.744Z,113.09
2023-05-10T12:36:39.106Z,113.30
2023-05-10T12:37:39.096Z,113.59
2023-05-10T12:38:39.068Z,112.28
2023-05-10T12:39:39.090Z,103.17
2023-05-10T12:40:39.144Z,99.47
2023-05-10T12:41:40.405Z,96.56
2023-05-10T12:42:39.047Z,93.00
2023-05-10T12:43:39.048Z,83.35
2023-05-10T12:44:39.034Z,82.82
2023-05-10T12:45:39.078Z,81.18
2023-05-10T12:46:39.014Z,75.19
2023-05-10T12:47:40.806Z,72.56
2023-05-10T12:48:39.060Z,72.78
2023-05-10T12:49:39.022Z,73.93
2023-05-10T12:50:38.984Z,76.60
2023-05-10T12:51:39.002Z,82.30